sensor_id;sensor_type;location;lat;lon;timestamp;P1;durP1;ratioP1;P2;durP2;ratioP2
35243;SDS011;37916;52.160;21.066;2024-02-16T00:09:24;21.08;;;12.25;;
35243;SDS011;37916;52.160;21.066;2024-02-16T00:19:25;19.08;;;11.02;;
35243;SDS011;37916;52.160;21.066;2024-02-16T00:29:27;20.67;;;11.25;;
35243;SDS011;37916;52.160;21.066;2024-02-16T00:39:29;26.40;;;10.93;;
35243;SDS011;37916;52.160;21.066;2024-02-16T00:49:30;18.90;;;10.25;;
35243;SDS011;37916;52.160;21.066;2024-02-16T00:59:31;19.33;;;10.32;;
35243;SDS011;37916;52.160;21.066;2024-02-16T01:09:32;14.98;;;9.20;;
35243;SDS011;37916;52.160;21.066;2024-02-16T01:19:33;19.98;;;8.88;;
35243;SDS011;37916;52.160;21.066;2024-02-16T01:29:34;17.35;;;8.50;;
35243;SDS011;37916;52.160;21.066;2024-02-16T01:39:35;13.38;;;7.72;;
35243;SDS011;37916;52.160;21.066;2024-02-16T01:49:36;12.15;;;7.10;;
35243;SDS011;37916;52.160;21.066;2024-02-16T01:59:38;16.00;;;6.80;;
35243;SDS011;37916;52.160;21.066;2024-02-16T02:09:40;12.68;;;6.35;;
35243;SDS011;37916;52.160;21.066;2024-02-16T02:19:41;12.90;;;6.82;;
35243;SDS011;37916;52.160;21.066;2024-02-16T02:29:42;13.70;;;8.07;;
35243;SDS011;37916;52.160;21.066;2024-02-16T02:39:44;17.48;;;7.70;;
35243;SDS011;37916;52.160;21.066;2024-02-16T02:49:45;12.63;;;6.63;;
35243;SDS011;37916;52.160;21.066;2024-02-16T02:59:46;16.13;;;7.43;;
35243;SDS011;37916;52.160;21.066;2024-02-16T03:09:47;12.48;;;6.78;;
35243;SDS011;37916;52.160;21.066;2024-02-16T03:19:48;12.95;;;5.95;;
35243;SDS011;37916;52.160;21.066;2024-02-16T03:29:50;15.73;;;7.07;;
35243;SDS011;37916;52.160;21.066;2024-02-16T03:39:53;14.18;;;8.25;;
35243;SDS011;37916;52.160;21.066;2024-02-16T03:49:54;18.23;;;7.65;;
35243;SDS011;37916;52.160;21.066;2024-02-16T03:59:55;14.82;;;7.50;;
35243;SDS011;37916;52.160;21.066;2024-02-16T04:09:56;17.67;;;7.68;;
35243;SDS011;37916;52.160;21.066;2024-02-16T04:19:57;13.05;;;7.65;;
35243;SDS011;37916;52.160;21.066;2024-02-16T04:29:58;14.30;;;7.97;;
35243;SDS011;37916;52.160;21.066;2024-02-16T04:39:59;15.18;;;8.05;;
35243;SDS011;37916;52.160;21.066;2024-02-16T04:50:00;16.27;;;8.40;;
35243;SDS011;37916;52.160;21.066;2024-02-16T05:00:02;18.60;;;8.90;;
35243;SDS011;37916;52.160;21.066;2024-02-16T05:10:03;16.77;;;9.02;;
35243;SDS011;37916;52.160;21.066;2024-02-16T05:20:09;15.80;;;9.15;;
35243;SDS011;37916;52.160;21.066;2024-02-16T05:30:15;15.65;;;8.55;;
35243;SDS011;37916;52.160;21.066;2024-02-16T05:40:16;12.52;;;8.40;;
35243;SDS011;37916;52.160;21.066;2024-02-16T06:00:34;13.73;;;7.90;;
35243;SDS011;37916;52.160;21.066;2024-02-16T06:20:36;17.85;;;9.10;;
35243;SDS011;37916;52.160;21.066;2024-02-16T06:30:37;19.10;;;9.13;;
35243;SDS011;37916;52.160;21.066;2024-02-16T06:40:38;16.50;;;8.77;;
35243;SDS011;37916;52.160;21.066;2024-02-16T06:50:39;14.95;;;9.40;;
35243;SDS011;37916;52.160;21.066;2024-02-16T07:00:40;16.90;;;10.10;;
35243;SDS011;37916;52.160;21.066;2024-02-16T07:10:42;17.85;;;10.10;;
35243;SDS011;37916;52.160;21.066;2024-02-16T07:20:43;18.30;;;9.38;;
35243;SDS011;37916;52.160;21.066;2024-02-16T07:30:44;16.38;;;9.25;;
35243;SDS011;37916;52.160;21.066;2024-02-16T07:40:46;20.60;;;9.55;;
35243;SDS011;37916;52.160;21.066;2024-02-16T07:50:47;17.83;;;9.75;;
35243;SDS011;37916;52.160;21.066;2024-02-16T08:00:50;17.98;;;9.52;;
35243;SDS011;37916;52.160;21.066;2024-02-16T08:10:52;16.95;;;8.63;;
35243;SDS011;37916;52.160;21.066;2024-02-16T08:20:53;14.52;;;8.40;;
35243;SDS011;37916;52.160;21.066;2024-02-16T08:30:56;13.47;;;8.40;;
35243;SDS011;37916;52.160;21.066;2024-02-16T08:40:57;18.45;;;9.57;;
35243;SDS011;37916;52.160;21.066;2024-02-16T08:50:59;20.02;;;9.43;;
35243;SDS011;37916;52.160;21.066;2024-02-16T09:01:00;17.38;;;9.18;;
35243;SDS011;37916;52.160;21.066;2024-02-16T09:11:02;17.23;;;9.32;;
35243;SDS011;37916;52.160;21.066;2024-02-16T09:21:05;19.23;;;9.53;;
35243;SDS011;37916;52.160;21.066;2024-02-16T09:31:06;15.98;;;9.02;;
35243;SDS011;37916;52.160;21.066;2024-02-16T09:41:08;20.85;;;10.82;;
35243;SDS011;37916;52.160;21.066;2024-02-16T09:51:09;15.18;;;8.82;;
35243;SDS011;37916;52.160;21.066;2024-02-16T10:01:16;14.35;;;8.25;;
35243;SDS011;37916;52.160;21.066;2024-02-16T10:11:20;21.00;;;9.30;;
35243;SDS011;37916;52.160;21.066;2024-02-16T10:21:25;16.10;;;9.55;;
35243;SDS011;37916;52.160;21.066;2024-02-16T10:31:27;14.85;;;8.60;;
35243;SDS011;37916;52.160;21.066;2024-02-16T10:41:29;16.52;;;9.05;;
35243;SDS011;37916;52.160;21.066;2024-02-16T10:51:40;14.57;;;8.65;;
35243;SDS011;37916;52.160;21.066;2024-02-16T11:01:43;16.38;;;9.20;;
35243;SDS011;37916;52.160;21.066;2024-02-16T11:11:50;13.80;;;7.90;;
35243;SDS011;37916;52.160;21.066;2024-02-16T11:21:56;15.68;;;8.40;;
35243;SDS011;37916;52.160;21.066;2024-02-16T11:31:57;14.85;;;8.48;;
35243;SDS011;37916;52.160;21.066;2024-02-16T11:42:05;14.73;;;8.90;;
35243;SDS011;37916;52.160;21.066;2024-02-16T11:52:07;14.30;;;8.15;;
35243;SDS011;37916;52.160;21.066;2024-02-16T12:02:08;16.58;;;8.85;;
35243;SDS011;37916;52.160;21.066;2024-02-16T12:12:18;15.15;;;8.93;;
35243;SDS011;37916;52.160;21.066;2024-02-16T12:22:20;14.00;;;8.05;;
35243;SDS011;37916;52.160;21.066;2024-02-16T12:32:21;14.35;;;7.70;;
35243;SDS011;37916;52.160;21.066;2024-02-16T12:42:22;14.93;;;7.45;;
35243;SDS011;37916;52.160;21.066;2024-02-16T12:52:32;15.90;;;7.93;;
35243;SDS011;37916;52.160;21.066;2024-02-16T13:02:35;13.07;;;8.10;;
35243;SDS011;37916;52.160;21.066;2024-02-16T13:12:37;16.30;;;10.00;;
35243;SDS011;37916;52.160;21.066;2024-02-16T13:22:42;15.10;;;8.05;;
35243;SDS011;37916;52.160;21.066;2024-02-16T13:32:44;14.00;;;8.70;;
35243;SDS011;37916;52.160;21.066;2024-02-16T13:42:45;18.83;;;8.48;;
35243;SDS011;37916;52.160;21.066;2024-02-16T13:52:46;13.48;;;7.80;;
35243;SDS011;37916;52.160;21.066;2024-02-16T14:02:47;11.07;;;6.25;;
35243;SDS011;37916;52.160;21.066;2024-02-16T14:12:48;12.70;;;6.35;;
35243;SDS011;37916;52.160;21.066;2024-02-16T14:22:50;9.27;;;5.95;;
35243;SDS011;37916;52.160;21.066;2024-02-16T14:32:51;13.40;;;6.80;;
35243;SDS011;37916;52.160;21.066;2024-02-16T14:42:52;10.32;;;5.85;;
35243;SDS011;37916;52.160;21.066;2024-02-16T14:52:53;11.68;;;6.05;;
35243;SDS011;37916;52.160;21.066;2024-02-16T15:12:58;11.05;;;6.18;;
35243;SDS011;37916;52.160;21.066;2024-02-16T15:22:59;12.50;;;6.38;;
35243;SDS011;37916;52.160;21.066;2024-02-16T15:33:03;10.57;;;5.82;;
35243;SDS011;37916;52.160;21.066;2024-02-16T15:43:14;12.07;;;6.85;;
35243;SDS011;37916;52.160;21.066;2024-02-16T15:53:19;11.18;;;5.72;;
35243;SDS011;37916;52.160;21.066;2024-02-16T16:03:39;12.98;;;5.93;;
35243;SDS011;37916;52.160;21.066;2024-02-16T16:24:10;11.32;;;6.18;;
35243;SDS011;37916;52.160;21.066;2024-02-16T16:34:14;12.38;;;6.45;;
35243;SDS011;37916;52.160;21.066;2024-02-16T16:44:15;10.85;;;6.60;;
35243;SDS011;37916;52.160;21.066;2024-02-16T16:54:18;20.40;;;7.53;;
35243;SDS011;37916;52.160;21.066;2024-02-16T17:04:22;14.35;;;7.75;;
35243;SDS011;37916;52.160;21.066;2024-02-16T17:14:31;16.30;;;8.55;;
35243;SDS011;37916;52.160;21.066;2024-02-16T17:24:38;14.10;;;8.00;;
35243;SDS011;37916;52.160;21.066;2024-02-16T17:34:45;15.18;;;7.20;;
35243;SDS011;37916;52.160;21.066;2024-02-16T17:44:48;19.92;;;8.55;;
35243;SDS011;37916;52.160;21.066;2024-02-16T17:54:58;17.17;;;9.38;;
35243;SDS011;37916;52.160;21.066;2024-02-16T18:05:02;15.38;;;9.20;;
35243;SDS011;37916;52.160;21.066;2024-02-16T18:15:03;14.23;;;9.73;;
35243;SDS011;37916;52.160;21.066;2024-02-16T18:25:07;21.98;;;10.18;;
35243;SDS011;37916;52.160;21.066;2024-02-16T18:35:08;19.10;;;10.43;;
35243;SDS011;37916;52.160;21.066;2024-02-16T18:45:09;19.80;;;10.63;;
35243;SDS011;37916;52.160;21.066;2024-02-16T18:55:11;17.80;;;10.68;;
35243;SDS011;37916;52.160;21.066;2024-02-16T19:05:15;21.27;;;11.38;;
35243;SDS011;37916;52.160;21.066;2024-02-16T19:15:17;21.45;;;12.02;;
35243;SDS011;37916;52.160;21.066;2024-02-16T19:25:18;21.98;;;12.68;;
35243;SDS011;37916;52.160;21.066;2024-02-16T19:35:19;33.85;;;16.15;;
35243;SDS011;37916;52.160;21.066;2024-02-16T19:45:22;22.48;;;12.57;;
35243;SDS011;37916;52.160;21.066;2024-02-16T19:55:23;22.65;;;12.07;;
35243;SDS011;37916;52.160;21.066;2024-02-16T20:05:24;20.77;;;12.85;;
35243;SDS011;37916;52.160;21.066;2024-02-16T20:15:25;25.70;;;12.93;;
35243;SDS011;37916;52.160;21.066;2024-02-16T20:25:30;20.45;;;12.45;;
35243;SDS011;37916;52.160;21.066;2024-02-16T20:35:31;23.35;;;13.98;;
35243;SDS011;37916;52.160;21.066;2024-02-16T20:45:32;22.92;;;13.18;;
35243;SDS011;37916;52.160;21.066;2024-02-16T20:55:33;28.98;;;14.40;;
35243;SDS011;37916;52.160;21.066;2024-02-16T21:05:35;28.67;;;14.73;;
35243;SDS011;37916;52.160;21.066;2024-02-16T21:15:36;31.33;;;15.20;;
35243;SDS011;37916;52.160;21.066;2024-02-16T21:25:37;27.50;;;15.25;;
35243;SDS011;37916;52.160;21.066;2024-02-16T21:35:38;24.33;;;15.30;;
35243;SDS011;37916;52.160;21.066;2024-02-16T21:45:40;28.85;;;14.40;;
35243;SDS011;37916;52.160;21.066;2024-02-16T21:55:41;27.30;;;15.05;;
35243;SDS011;37916;52.160;21.066;2024-02-16T22:05:42;25.45;;;14.35;;
35243;SDS011;37916;52.160;21.066;2024-02-16T22:25:49;26.45;;;14.75;;
35243;SDS011;37916;52.160;21.066;2024-02-16T22:35:50;21.65;;;13.63;;
35243;SDS011;37916;52.160;21.066;2024-02-16T22:45:51;26.73;;;14.25;;
35243;SDS011;37916;52.160;21.066;2024-02-16T22:55:52;25.30;;;13.93;;
35243;SDS011;37916;52.160;21.066;2024-02-16T23:05:53;25.17;;;15.00;;
35243;SDS011;37916;52.160;21.066;2024-02-16T23:15:59;25.20;;;14.60;;
35243;SDS011;37916;52.160;21.066;2024-02-16T23:26:00;27.35;;;15.18;;
35243;SDS011;37916;52.160;21.066;2024-02-16T23:36:01;26.70;;;14.82;;
35243;SDS011;37916;52.160;21.066;2024-02-16T23:46:02;26.83;;;14.52;;
35243;SDS011;37916;52.160;21.066;2024-02-16T23:56:06;23.93;;;14.10;;
